Pagrindinis puslapis
METAR-TAF:

METAR-TAF

Oro uostai :

Bazelis-Miulūzas-Freiburgas, Prancūzija

platuma: 47-36N, ilguma: 007-31E, Aukštis: 270 m

Dabartinis oras

Ataskaita buvo paskelbta 26 minutes, ne 09:30 UTC
Vėjas 2 kt nuo kintamojo kryptimis
Temperatūra 14°C
Drėgmė 55%
Slėgis 1026 hPa
Matomumas 10 km arba daugiau
nėra debesų žemiau 1500 m ir nėra kamuolinių lietaus debesų

METAR: LFSB 200930Z VRB02KT CAVOK 14/05 Q1026 NOSIG

Laikas: 11:56 (09:56 UTC)

Prognozė

Ataskaita buvo paskelbta 4 valandos ir 54 minutes, ne 05:02 UTC
Prognozė galioja nuo 20 metu 06 UTC su 21 metu 06 UTC
Vėjas 4 kt iš Vakarų/Šiaurės Vakarų
Matomumas 10 km arba daugiau
nėra debesų žemiau 1500 m ir nėra kamuolinių lietaus debesų
Laikinai
nuo 20 metu 11 UTC su 20 metu 17 UTC
Vėjas 10 kt iš Šiaurės
Tapsmas
nuo 20 metu 18 UTC su 20 metu 21 UTC
Vėjas 5 kt iš Rytų/Pietryčių

TAF: LFSB 200502Z 2006/2106 30004KT CAVOK TEMPO 2011/2017 36010KT BECMG 2018/2021 11005KT

Orai ataskaitas ir orų prognozės (METAR, TAF).

turimą stotys yra geltonos ir raudonos taškus žemėlapyje.

Perkelti pele per norėdami pamatyti stoties vardą.

Tada spustelėkite, norėdami matyti oro stebėjimo ir prognozės.

Norėdami pakeisti žemėlapį: spustelėkite ant žalios mygtukų su juodo kryžiaus žemyn,; žalią mygtuką su brūkšneliu, jei norite nutolinti; arba žalių rodyklių gretimoms žemėlapius.


METAR-TAF: